• Join FlightAware (Why Join?)
  • Login
  • US Flag 
06:42AM EDT


 

Airport Tracker/Info


-or-


 

Live Flight TrackerFlight Track Log ✈ SWA2800 ✈ 19-Oct-2013 ✈ KBNA - KCMH

Flight Track Log - Related Links

Times and Time Zones

All times are in EDT time to prevent confusion due to time zone crossing. See the SWA2800 flight status page for this flight to view local times or setup timezone preferences in your user account.

Time Position Orientation Groundspeed Altitude Reporting Facility
EDT Latitude Longitude Course Direction KTS MPH feet Rate Location/Type
08:26PM 36.1667 -86.6667 360° North 174 200 2,300  Level Nashville TRACON
08:27PM 36.2167 -86.6500 15° North 239 275 4,900 3,360 Climbing Nashville TRACON
08:28PM 36.2772 -86.6139 26° Northeast 283 326 8,200 4,200 Climbing Memphis Center
08:29PM 36.3533 -86.5794 20° North 308 354 12,700 4,140 Climbing Memphis Center
08:30PM 36.4436 -86.5392 20° North 330 380 16,500 3,840 Climbing Memphis Center
08:31PM 36.5403 -86.4931 21° North 354 407 20,400 3,480 Climbing Memphis Center
08:32PM 36.6428 -86.4417 22° Northeast 378 435 23,500 2,880 Climbing Memphis Center
08:33PM 36.7536 -86.3844 22° Northeast 403 464 26,200 2,580 Climbing Memphis Center
08:35PM 37.0017 -86.2628 21° North 447 514 31,800 2,100 Climbing Indianapolis Center
08:36PM 37.1253 -86.1997 22° Northeast 470 541 33,000 540 Climbing Indianapolis Center
08:37PM 37.2461 -86.1381 22° Northeast 468 539 33,000  Level Indianapolis Center
08:38PM 37.3633 -86.0625 27° Northeast 468 539 33,000  Level Indianapolis Center
08:39PM 37.4806 -85.9856 28° Northeast 470 541 33,000  Level Indianapolis Center
08:40PM 37.5828 -85.9200 27° Northeast 466 536 33,000  Level Indianapolis Center
08:41PM 37.6986 -85.8444 27° Northeast 468 539 33,000  Level Indianapolis Center
08:42PM 37.8125 -85.7686 28° Northeast 464 534 33,000  Level Indianapolis Center
08:43PM 37.9286 -85.6925 27° Northeast 468 539 33,000  Level Indianapolis Center
08:44PM 38.0442 -85.6153 28° Northeast 468 539 33,000 -240 Level Indianapolis Center
08:45PM 38.1581 -85.5261 32° Northeast 480 552 32,600 -660 Descending Indianapolis Center
08:46PM 38.2639 -85.4253 37° Northeast 479 551 31,700 -840 Descending Indianapolis Center
08:47PM 38.3922 -85.3031 37° Northeast 479 551 31,000 -360 Descending Indianapolis Center
08:48PM 38.4967 -85.2044 36° Northeast 475 547 31,000  Level Indianapolis Center
08:49PM 38.6050 -85.1003 37° Northeast 476 548 31,000 -60 Level Indianapolis Center
08:50PM 38.7053 -85.0033 37° Northeast 471 542 30,900 -900 Descending Indianapolis Center
08:51PM 38.8031 -84.9097 37° Northeast 444 511 29,200 -2,100 Descending Indianapolis Center
08:52PM 38.8992 -84.8156 37° Northeast 439 505 26,700 -2,400 Descending Indianapolis Center
08:53PM 38.9928 -84.7258 37° Northeast 446 513 24,400 -1,740 Descending Indianapolis Center
08:54PM 39.0703 -84.6033 51° Northeast 443 510 23,300 -1,080 Descending Indianapolis Center
08:55PM 39.1397 -84.4778 54° Northeast 437 503 22,300 -1,140 Descending Indianapolis Center
08:56PM 39.2214 -84.3292 55° Northeast 427 491 21,100 -1,140 Descending Indianapolis Center
08:57PM 39.2900 -84.2058 54° Northeast 423 487 20,100 -1,020 Descending Indianapolis Center
08:58PM 39.3419 -84.0719 63° Northeast 419 482 19,100 -1,020 Descending Indianapolis Center
08:59PM 39.3931 -83.9397 63° Northeast 415 478 18,100 -1,080 Descending Indianapolis Center
09:00PM 39.4478 -83.7981 63° Northeast 405 466 17,000 -1,500 Descending Indianapolis Center
09:01PM 39.4819 -83.7089 64° Northeast 394 453 15,600 -1,920 Descending Indianapolis Center
09:01PM 39.4911 -83.6828 66° East 398 458 15,100 -2,040 Descending Indianapolis Center
09:02PM 39.5281 -83.5864 64° Northeast 382 440 13,600 -1,980 Descending Indianapolis Center
09:02PM 39.5372 -83.5611 65° Northeast 384 442 13,100 -1,800 Descending Indianapolis Center
09:03PM 39.5736 -83.4692 63° Northeast 361 415 11,800 -1,500 Descending Indianapolis Center
09:03PM 39.5808 -83.4458 68° East 364 419 11,600 -1,200 Descending Indianapolis Center
09:04PM 39.6236 -83.3686 54° Northeast 331 381 10,600 -1,200 Descending Indianapolis Center
09:04PM 39.6336 -83.3489 57° Northeast 335 386 10,400 -600 Descending Indianapolis Center
09:05PM 39.6811 -83.2750 50° Northeast 334 384 10,000 -420 Descending Indianapolis Center
09:05PM 39.6889 -83.2564 61° Northeast 331 381 10,000 -1,500 Level Indianapolis Center
09:06PM 39.7342 -83.1831 51° Northeast 291 335 8,500 -2,040 Descending Indianapolis Center
09:06PM 39.7492 -83.1583 52° Northeast 297 342 8,000 -1,380 Descending Indianapolis Center
09:07PM 39.7864 -83.1017 49° Northeast 296 341 7,100 -1,320 Descending Indianapolis Center
09:07PM 39.7981 -83.0747 61° Northeast 294 338 6,700 -1,140 Descending Indianapolis Center
09:08PM 39.8103 -83.0047 77° East 287 330 6,000 -1,020 Descending Indianapolis Center
09:08PM 39.8150 -82.9742 79° East 284 327 5,700 -1,440 Descending Indianapolis Center
09:09PM 39.8275 -82.9119 75° East 283 326 4,700 -1,620 Descending Indianapolis Center
09:09PM 39.8342 -82.8747 77° East 285 328 4,100 -600 Descending Indianapolis Center
09:10PM 39.8625 -82.8306 50° Northeast 249 287 4,100 -300 Level Indianapolis Center
09:10PM 39.8783 -82.8072 49° Northeast 254 292 3,800 -840 Descending Indianapolis Center
09:11PM 39.9250 -82.7492 44° Northeast 240 276 2,900 -720 Descending Indianapolis Center
09:12PM 39.9539 -82.7522 355° North 193 222 2,800 -420 Descending Indianapolis Center
09:12PM 39.9767 -82.7542 356° North 207 238 2,500 -600 Descending Indianapolis Center
09:13PM 39.9864 -82.7872 291° West 124 143 2,200 -600 Descending Indianapolis Center
09:13PM 39.9889 -82.7975 288° West 157 181 1,900 -720 Descending Indianapolis Center
09:14PM 39.9889 -82.8286 270° West 103 119 1,500 -540 Descending Indianapolis Center
09:14PM 39.9894 -82.8375 275° West 129 148 1,400 -300 Descending Indianapolis Center
09:15PM 39.9914 -82.8758 274° West 123 142 1,100 -300 Descending Indianapolis Center
09:17PM 39.9833 -82.8833 270° West  Level FlightAware Approximate